Latest Weather Observations for Pallamana

IDS60901

Issued at 9:21 pm CST Thursday 22 June 2017 (issued every 10 minutes, with the page automatically refreshed every 10 minutes)

About weather observations | Map of Adelaide area stations | Latest observations for Adelaide area | Other Formats
Station Details ID: 024584 Name: PALLAMANA AERODROME Lat: -35.06 Lon: 139.23 Height: 45.0 m
Data from the previous 72 hours. | See also: Recent months at Pallamana
Date/Time
CST
Temp
°C
App
Temp
°C
Dew
Point
°C
Rel
Hum
%
Delta-T
°C
Wind Press
QNH
hPa
Press
MSL
hPa
Rain since
9am
mm
Dir  Spd
km/h
Gust
km/h
Spd
kts
Gust
kts
22/09:00pm 6.9 3.0 1.4 68 2.2 NNW 11 13 6 7 1022.0 1022.1 0.0
22/08:30pm 2.5 -1.3 -0.5 80 1.1 NNW 9 11 5 6 1022.1 1022.2 0.0
22/08:00pm 4.3 1.2 0.1 74 1.6 NW 6 7 3 4 1022.2 1022.3 0.0
22/07:30pm 4.6 1.4 0.7 76 1.5 NNW 7 11 4 6 1022.1 1022.2 0.0
22/07:00pm 8.6 4.9 2.1 63 2.7 NNW 11 13 6 7 1022.1 1022.2 0.0
22/06:30pm 8.7 4.6 2.2 63 2.7 NNW 13 13 7 7 1021.9 1022.0 0.0
22/06:00pm 10.6 7.8 3.0 59 3.3 N 7 9 4 5 1021.9 1022.0 0.0
22/05:30pm 12.0 8.7 2.5 52 4.1 NNE 9 11 5 6 1022.0 1022.1 0.0
22/05:00pm 13.7 10.0 2.6 47 4.9 NNE 11 13 6 7 1022.0 1022.1 0.0
22/04:30pm 16.5 11.5 1.6 36 6.6 NNE 17 20 9 11 1022.0 1022.1 0.0
22/04:00pm 17.5 12.1 1.2 33 7.2 NNE 19 24 10 13 1022.0 1022.1 0.0
22/03:30pm 18.0 12.1 1.4 32 7.4 NNE 22 26 12 14 1021.9 1022.0 0.0
22/03:00pm 18.3 12.8 1.6 32 7.5 NE 20 28 11 15 1022.0 1022.1 0.0
22/02:30pm 18.4 12.9 1.8 33 7.5 NNE 20 35 11 19 1022.1 1022.2 0.0
22/02:00pm 18.0 11.3 1.7 33 7.3 NNE 26 33 14 18 1022.5 1022.6 0.0
22/01:30pm 17.9 12.0 1.9 34 7.2 NNE 22 30 12 16 1023.1 1023.2 0.0
22/01:00pm 17.5 10.9 1.9 35 7.0 NNE 26 33 14 18 1023.7 1023.8 0.0
22/12:30pm 17.1 10.5 2.2 36 6.7 NNE 26 33 14 18 1024.4 1024.5 0.0
22/12:00pm 16.5 10.5 3.4 41 6.0 NNE 24 32 13 17 1025.1 1025.2 0.0
22/11:30am 15.1 9.2 3.7 46 5.2 NNE 24 32 13 17 1026.0 1026.1 0.0
22/11:00am 13.9 8.4 4.0 51 4.5 NNE 22 28 12 15 1026.5 1026.6 0.0
22/10:30am 12.0 9.2 5.2 63 3.1 N 9 15 5 8 1027.1 1027.2 0.0
22/10:00am 8.4 5.1 4.3 75 1.8 NNE 11 15 6 8 1027.5 1027.6 0.0
22/09:30am 6.3 4.0 4.9 91 0.6 N 6 7 3 4 1027.5 1027.6 0.0
22/09:00am 4.9 1.8 3.7 92 0.5 N 9 13 5 7 1027.3 1027.4 0.0
22/08:30am 4.2 0.6 3.2 93 0.4 NNW 11 13 6 7 1027.4 1027.5 0.0
22/08:00am 2.4 -1.0 1.9 96 0.2 N 9 11 5 6 1027.5 1027.6 0.0
22/07:30am 2.4 -1.0 1.9 96 0.2 N 9 11 5 6 1027.2 1027.3 0.0
22/07:00am 2.7 -1.0 2.4 98 0.1 NNW 11 13 6 7 1026.9 1027.0 0.0
22/06:30am 2.6 -0.8 2.1 96 0.2 NNW 9 11 5 6 1026.7 1026.8 0.0
22/06:00am 1.8 -1.3 1.3 96 0.2 N 7 9 4 5 1026.4 1026.5 0.0
22/05:30am 3.2 -0.1 2.7 96 0.2 NNW 9 11 5 6 1026.3 1026.4 0.0
22/05:00am 2.7 -0.6 2.4 98 0.1 NW 9 11 5 6 1026.4 1026.5 0.0
22/04:30am 2.4 -1.0 1.9 96 0.2 NNW 9 11 5 6 1026.4 1026.5 0.0
22/04:00am 0.4 - - - - NNW 2 7 1 4 1026.4 1026.5 0.0
22/03:30am 1.4 -1.7 1.1 98 0.1 NW 7 9 4 5 1026.6 1026.7 0.0
22/03:27am 1.4 -1.7 1.1 98 0.1 NW 7 9 4 5 1026.6 1026.7 0.0
22/03:00am 1.7 -1.3 1.7 100 0.0 N 7 9 4 5 1026.8 1026.9 0.0
22/02:42am 0.8 -2.2 0.5 98 0.1 N 6 7 3 4 1026.5 1026.6 0.0
22/02:35am 1.6 -1.4 1.1 96 0.2 NNW 6 9 3 5 1026.5 1026.6 0.0
22/02:30am 1.5 -1.7 1.0 96 0.2 NNW 7 9 4 5 1026.7 1026.8 0.0
22/02:20am 1.8 -1.3 1.5 98 0.1 NNW 7 9 4 5 1026.9 1027.0 0.0
22/02:00am 2.7 -0.6 2.4 98 0.1 NNW 9 11 5 6 1026.8 1026.9 0.0
22/01:56am 2.5 -0.8 2.2 98 0.1 N 9 11 5 6 1026.8 1026.9 0.0
22/01:30am 2.3 -0.7 2.0 98 0.1 N 7 9 4 5 1026.8 1026.9 0.0
22/01:00am 2.9 1.3 2.4 96 0.2 CALM 0 0 0 0 1026.7 1026.8 0.0
22/12:30am 3.5 2.1 3.3 99 0.1 CALM 0 0 0 0 1027.0 1027.1 0.0
22/12:00am 4.1 1.5 3.1 93 0.4 NNW 6 7 3 4 1027.2 1027.3 0.0
 
Date/Time
CST
Temp
°C
App
Temp
°C
Dew
Point
°C
Rel
Hum
%
Delta-T
°C
Wind Press
QNH
hPa
Press
MSL
hPa
Rain since
9am
mm
Dir  Spd
km/h
Gust
km/h
Spd
kts
Gust
kts
21/11:44pm 3.1 0.5 3.1 100 0.0 NNW 6 9 3 5 1027.4 1027.5 0.0
21/11:30pm 4.7 2.1 4.2 97 0.2 NW 7 9 4 5 1027.5 1027.6 0.0
21/11:27pm 4.7 1.7 4.2 97 0.2 NNW 9 11 5 6 1027.5 1027.6 0.0
21/11:00pm 6.0 4.2 5.5 97 0.2 WSW 4 9 2 5 1027.6 1027.7 0.0
21/10:30pm 6.8 5.2 6.4 97 0.2 WNW 4 7 2 4 1027.5 1027.6 0.0
21/10:15pm 6.2 4.0 6.2 100 0.0 WSW 7 13 4 7 1027.6 1027.7 0.0
21/10:00pm 8.3 5.2 7.2 93 0.5 WSW 13 15 7 8 1027.6 1027.7 0.0
21/09:30pm 9.4 6.9 8.1 92 0.6 W 11 15 6 8 1028.1 1028.2 0.0
21/09:00pm 9.8 7.7 8.4 91 0.7 W 9 15 5 8 1028.2 1028.3 0.0
21/08:30pm 7.2 5.0 5.4 88 0.8 NW 6 9 3 5 1028.1 1028.2 0.0
21/08:00pm 9.4 5.9 7.0 85 1.1 WSW 15 17 8 9 1028.0 1028.1 0.0
21/07:30pm 10.4 6.7 6.3 76 1.9 WSW 15 17 8 9 1027.7 1027.8 0.0
21/07:13pm 10.9 8.3 6.2 73 2.2 SW 9 11 5 6 1027.6 1027.7 0.0
21/07:00pm 10.1 8.1 6.4 78 1.7 S 6 7 3 4 1027.5 1027.6 0.0
21/06:30pm 10.0 7.6 5.4 73 2.1 S 7 11 4 6 1027.3 1027.4 0.0
21/06:00pm 12.0 9.8 6.2 67 2.7 S 7 7 4 4 1027.0 1027.1 0.0
21/05:30pm 12.5 10.2 5.9 64 3.1 S 7 9 4 5 1026.9 1027.0 0.0
21/05:26pm 12.6 10.3 5.7 63 3.2 S 7 9 4 5 1026.9 1027.0 0.0
21/05:00pm 14.0 11.3 5.5 56 4.0 SE 9 9 5 5 1026.8 1026.9 0.0
21/04:30pm 16.3 13.7 6.2 51 4.9 E 9 9 5 5 1026.8 1026.9 0.0
21/04:00pm 17.7 15.0 5.7 45 5.8 ENE 9 11 5 6 1026.7 1026.8 0.0
21/03:30pm 18.0 15.4 5.9 45 5.9 E 9 11 5 6 1026.5 1026.6 0.0
21/03:00pm 17.7 14.3 6.0 46 5.7 ENE 13 17 7 9 1026.5 1026.6 0.0
21/02:30pm 18.5 15.5 6.1 44 6.1 ENE 11 13 6 7 1026.4 1026.5 0.0
21/02:00pm 18.9 16.0 6.4 44 6.2 ESE 11 15 6 8 1026.5 1026.6 0.0
21/01:30pm 18.6 16.1 6.7 46 5.9 NW 9 13 5 7 1027.3 1027.4 0.0
21/01:00pm 18.6 16.2 7.0 46 5.8 NNE 9 13 5 7 1027.4 1027.5 0.0
21/12:30pm 18.2 15.6 7.7 50 5.3 NNE 11 17 6 9 1027.7 1027.8 0.0
21/12:00pm 17.9 15.5 8.5 54 4.8 N 11 15 6 8 1028.3 1028.4 0.0
21/11:30am 17.3 15.0 9.0 58 4.3 NNE 11 17 6 9 1028.9 1029.0 0.0
21/11:00am 16.6 14.2 8.5 58 4.1 NNE 11 15 6 8 1029.2 1029.3 0.0
21/10:30am 15.6 13.1 8.2 61 3.7 N 11 13 6 7 1029.4 1029.5 0.0
21/10:00am 13.3 12.1 8.0 70 2.6 NE 4 6 2 3 1029.6 1029.7 0.0
21/09:30am 10.8 9.3 7.0 77 1.8 NNE 4 7 2 4 1029.4 1029.5 0.0
21/09:00am 8.2 6.0 6.2 87 0.9 N 7 9 4 5 1029.3 1029.4 0.2
21/08:30am 6.4 4.1 5.5 94 0.4 NNW 7 9 4 5 1029.0 1029.1 0.2
21/08:00am 3.3 0.3 2.0 91 0.5 NNW 7 9 4 5 1028.9 1029.0 0.2
21/07:30am 3.0 -0.3 2.5 96 0.2 NNW 9 11 5 6 1028.7 1028.8 0.2
21/07:00am 1.0 -1.7 0.5 96 0.2 N 4 7 2 4 1028.5 1028.6 0.2
21/06:30am 0.9 -1.1 0.1 94 0.3 CALM 0 0 0 0 1028.3 1028.4 0.2
21/06:00am 2.5 -1.0 1.2 91 0.5 NNW 9 11 5 6 1028.1 1028.2 0.2
21/05:30am 3.1 0.0 1.3 88 0.7 NNW 7 9 4 5 1027.8 1027.9 0.2
21/05:00am 3.5 0.2 2.2 91 0.5 NNW 9 11 5 6 1027.5 1027.6 0.2
21/04:30am 3.5 -0.2 2.2 91 0.5 NNW 11 11 6 6 1027.5 1027.6 0.2
21/04:00am 4.6 1.8 2.9 89 0.7 NNW 7 9 4 5 1027.5 1027.6 0.2
21/03:30am 3.0 -0.4 2.0 93 0.4 NNW 9 11 5 6 1027.4 1027.5 0.2
21/03:00am 1.9 -1.1 0.8 92 0.4 NNW 6 9 3 5 1027.4 1027.5 0.2
21/02:30am 3.3 0.3 1.8 90 0.6 NNW 7 9 4 5 1027.2 1027.3 0.2
21/02:00am 3.0 -0.1 1.4 89 0.6 N 7 9 4 5 1027.2 1027.3 0.2
21/01:30am 4.6 1.9 2.9 89 0.7 NW 6 9 3 5 1026.9 1027.0 0.2
21/01:00am 3.7 2.1 2.4 91 0.5 CALM 0 0 0 0 1026.9 1027.0 0.2
21/12:30am 4.9 3.4 2.9 87 0.8 CALM 0 0 0 0 1027.1 1027.2 0.2
21/12:00am 3.1 1.3 1.3 88 0.7 CALM 0 0 0 0 1027.2 1027.3 0.2
 
Date/Time
CST
Temp
°C
App
Temp
°C
Dew
Point
°C
Rel
Hum
%
Delta-T
°C
Wind Press
QNH
hPa
Press
MSL
hPa
Rain since
9am
mm
Dir  Spd
km/h
Gust
km/h
Spd
kts
Gust
kts
20/11:30pm 4.6 3.0 2.3 85 0.9 CALM 0 0 0 0 1027.2 1027.3 0.2
20/11:00pm 3.2 0.6 0.8 84 0.9 NE 4 6 2 3 1027.2 1027.3 0.2
20/10:30pm 4.8 3.3 2.8 87 0.8 CALM 0 0 0 0 1027.3 1027.4 0.2
20/10:00pm 4.5 0.7 2.0 84 1.0 N 11 13 6 7 1027.2 1027.3 0.2
20/09:30pm 6.0 2.6 2.0 75 1.6 NNW 9 13 5 7 1027.2 1027.3 0.2
20/09:00pm 7.0 3.4 2.9 75 1.7 NNW 11 15 6 8 1027.3 1027.4 0.2
20/08:30pm 5.9 3.0 1.6 74 1.7 E 6 9 3 5 1027.2 1027.3 0.2
20/08:00pm 10.4 6.1 3.0 60 3.2 WNW 15 15 8 8 1027.2 1027.3 0.2
20/07:30pm 9.9 5.4 2.3 59 3.2 WNW 15 17 8 9 1027.1 1027.2 0.2
20/07:00pm 12.0 8.0 2.8 53 4.0 W 13 15 7 8 1027.0 1027.1 0.2
20/06:30pm 12.5 8.9 2.9 52 4.2 W 11 13 6 7 1026.8 1026.9 0.2
20/06:00pm 11.3 7.2 2.1 53 3.9 SW 13 15 7 8 1026.7 1026.8 0.2
20/05:30pm 12.0 8.3 2.5 52 4.1 SW 11 13 6 7 1026.3 1026.4 0.2
20/05:00pm 14.7 10.3 2.5 43 5.4 SW 15 17 8 9 1026.2 1026.3 0.2
20/04:30pm 17.4 13.2 1.7 35 7.0 SW 13 19 7 10 1026.0 1026.1 0.2
20/04:00pm 18.8 14.0 0.3 29 8.2 W 15 19 8 10 1025.9 1026.0 0.2
20/03:30pm 19.6 15.1 0.0 27 8.6 WNW 13 20 7 11 1025.8 1025.9 0.2
20/03:00pm 20.4 16.4 0.8 27 8.8 WNW 11 19 6 10 1025.6 1025.7 0.2
20/02:30pm 20.1 14.8 -0.6 25 9.0 WSW 17 22 9 12 1025.7 1025.8 0.2
20/02:00pm 20.7 16.5 1.7 28 8.7 WNW 13 20 7 11 1025.7 1025.8 0.2
20/01:30pm 20.2 15.0 0.4 26 8.8 WNW 17 24 9 13 1025.8 1025.9 0.2
20/01:00pm 20.0 16.0 2.8 32 8.0 NW 13 19 7 10 1025.8 1025.9 0.0
20/12:30pm 19.6 14.4 5.5 39 6.9 N 22 28 12 15 1026.2 1026.3 0.0
20/12:00pm 18.2 13.7 6.2 45 5.9 NNE 19 26 10 14 1026.6 1026.7 0.0
20/11:30am 16.7 12.3 7.2 53 4.7 NNE 20 24 11 13 1027.1 1027.2 0.0
20/11:00am 14.5 10.2 6.9 60 3.7 NNE 19 22 10 12 1027.6 1027.7 0.0
20/10:30am 13.1 9.2 7.1 67 2.9 N 17 20 9 11 1028.0 1028.1 0.0
20/10:00am 11.0 7.5 7.2 77 1.8 N 15 19 8 10 1028.2 1028.3 0.0
20/09:30am 8.3 5.0 6.6 89 0.8 N 13 15 7 8 1028.1 1028.2 0.0
20/09:00am 6.8 3.0 5.7 93 0.5 N 15 17 8 9 1028.1 1028.2 0.0
20/08:30am 5.1 1.4 4.6 97 0.2 N 13 15 7 8 1028.1 1028.2 0.0
20/08:00am 3.3 -0.3 2.8 97 0.2 NNW 11 13 6 7 1028.1 1028.2 0.0
20/07:30am 3.0 -0.7 2.5 96 0.2 NNW 11 11 6 6 1027.9 1028.0 0.0
20/07:00am 3.6 0.4 3.1 97 0.2 NW 9 9 5 5 1027.8 1027.9 0.0
20/06:30am 2.1 -1.0 1.6 96 0.2 NW 7 7 4 4 1027.6 1027.7 0.0
20/06:20am 4.0 1.2 3.3 95 0.3 NW 7 7 4 4 1027.5 1027.6 0.0
20/06:00am 1.8 -1.0 1.8 100 0.0 NW 6 6 3 3 1027.3 1027.4 0.0
20/05:59am 1.6 -1.3 1.6 100 0.0 NW 6 6 3 3 1027.2 1027.3 0.0
20/05:30am 3.9 1.1 3.4 97 0.2 NNW 7 9 4 5 1026.8 1026.9 0.0
20/05:00am 4.1 1.0 3.4 95 0.3 NW 9 11 5 6 1026.7 1026.8 0.0
20/04:30am 3.6 0.8 3.1 97 0.2 NNW 7 11 4 6 1026.7 1026.8 0.0
20/04:00am 4.4 1.6 3.4 93 0.4 NNW 7 9 4 5 1027.1 1027.2 0.0
20/03:30am 4.2 2.7 3.2 93 0.4 CALM 0 0 0 0 1027.5 1027.6 0.0
20/03:00am 3.2 1.0 3.2 100 0.0 NNW 4 7 2 4 1027.9 1028.0 0.0
20/02:30am 4.7 2.2 4.0 95 0.3 NNW 6 7 3 4 1028.0 1028.1 0.0
20/02:00am 3.6 0.3 2.6 93 0.4 N 9 9 5 5 1028.0 1028.1 0.0
20/01:30am 4.0 1.4 3.3 95 0.3 NW 6 7 3 4 1028.2 1028.3 0.0
20/01:00am 4.6 1.5 3.6 93 0.4 NNW 9 11 5 6 1028.2 1028.3 0.0
20/12:30am 4.5 1.4 3.5 93 0.4 NNW 9 11 5 6 1028.4 1028.5 0.0
20/12:00am 5.0 1.6 4.0 93 0.4 NNW 11 13 6 7 1028.6 1028.7 0.0
 
Date/Time
CST
Temp
°C
App
Temp
°C
Dew
Point
°C
Rel
Hum
%
Delta-T
°C
Wind Press
QNH
hPa
Press
MSL
hPa
Rain since
9am
mm
Dir  Spd
km/h
Gust
km/h
Spd
kts
Gust
kts
19/11:30pm 5.6 2.6 3.9 89 0.7 NNW 9 11 5 6 1028.9 1029.0 0.0
19/11:00pm 6.0 3.0 4.1 88 0.8 NNW 9 11 5 6 1029.2 1029.3 0.0
19/10:30pm 6.6 4.1 5.0 89 0.7 NNW 7 9 4 5 1029.3 1029.4 0.0
19/10:00pm 5.2 2.7 3.8 91 0.6 N 6 7 3 4 1029.4 1029.5 0.0
19/09:30pm 3.5 1.1 2.2 91 0.5 WNW 4 11 2 6 1029.6 1029.7 0.0

Latest Capital City Observations: Canberra | Sydney | Melbourne | Brisbane | Adelaide | Perth | Hobart | Darwin

Other Formats:

Comma delimited format used in spreadsheet applications
http://www.bom.gov.au/fwo/IDS60901/IDS60901.95818.axf

JavaScript Object Notation format (JSON) in row-major order
http://www.bom.gov.au/fwo/IDS60901/IDS60901.95818.json